createdAt,value
2018-11-22T00:00:25.602Z,83.8
2018-11-22T00:01:25.534Z,84
2018-11-22T00:02:25.437Z,84.2
2018-11-22T00:03:25.344Z,84.1
2018-11-22T00:05:54.667Z,84.4
2018-11-22T00:06:54.592Z,84.5
2018-11-22T00:07:54.501Z,84.7
2018-11-22T00:08:54.417Z,84.7
2018-11-22T00:09:54.322Z,84.7
2018-11-22T00:10:54.646Z,84.9
2018-11-22T00:11:54.575Z,85.1
2018-11-22T00:12:54.466Z,85.2
2018-11-22T00:13:54.387Z,85.5
2018-11-22T00:14:54.270Z,85.5
2018-11-22T00:15:54.157Z,85.5
2018-11-22T00:16:54.060Z,85.6
2018-11-22T00:17:53.986Z,85.8
2018-11-22T00:18:53.880Z,85.7
2018-11-22T00:19:53.790Z,85.8
2018-11-22T00:20:54.102Z,85.9
2018-11-22T00:21:53.986Z,86.2
2018-11-22T00:22:53.872Z,86.1
2018-11-22T00:23:53.778Z,86.2
2018-11-22T00:24:53.660Z,86.2
2018-11-22T00:25:53.552Z,86.2
2018-11-22T00:26:53.452Z,86.3
2018-11-22T00:27:53.344Z,86.2
2018-11-22T00:28:53.256Z,86.2
2018-11-22T00:29:53.164Z,86.3
2018-11-22T00:30:53.544Z,86.2
2018-11-22T00:31:53.458Z,86.1
2018-11-22T00:32:53.356Z,86.2
2018-11-22T00:33:53.268Z,86.2
2018-11-22T00:34:53.183Z,86.1
2018-11-22T00:35:53.064Z,86
2018-11-22T00:36:52.958Z,86.2
2018-11-22T00:37:52.854Z,86.2
2018-11-22T00:38:52.752Z,86.2
2018-11-22T00:39:52.674Z,86.2
2018-11-22T00:40:53.010Z,86.2
2018-11-22T00:41:52.898Z,86.3
2018-11-22T00:44:23.777Z,85.9
2018-11-22T00:45:23.710Z,85.7
2018-11-22T00:46:23.606Z,85.4
2018-11-22T00:47:23.498Z,85.3
2018-11-22T00:48:23.378Z,85.3
2018-11-22T00:49:23.262Z,85.3
2018-11-22T00:50:23.166Z,85.4
2018-11-22T00:51:23.490Z,85.4
2018-11-22T00:52:23.388Z,85.7
2018-11-22T00:53:23.276Z,85.8
2018-11-22T00:54:23.168Z,86
2018-11-22T00:56:52.502Z,86.1
2018-11-22T00:57:52.396Z,86.2
2018-11-22T00:58:52.302Z,86
2018-11-22T00:59:52.214Z,86.2
2018-11-22T01:00:52.108Z,86
2018-11-22T01:01:52.428Z,85.9
2018-11-22T01:02:52.308Z,86.1
2018-11-22T01:03:52.200Z,86.1
2018-11-22T01:04:52.085Z,86.2
2018-11-22T01:05:51.971Z,86.2
2018-11-22T01:06:51.864Z,85.8
2018-11-22T01:07:51.776Z,85.7
2018-11-22T01:08:51.650Z,85.8
2018-11-22T01:09:51.546Z,86
2018-11-22T01:10:51.452Z,86.2
2018-11-22T01:11:51.782Z,86.3
2018-11-22T01:12:51.673Z,86.3
2018-11-22T01:13:51.561Z,86.3
2018-11-22T01:14:51.449Z,86.2
2018-11-22T01:15:51.332Z,86.4
2018-11-22T01:16:51.268Z,86.5
2018-11-22T01:17:51.200Z,86.5
2018-11-22T01:18:51.075Z,86.6
2018-11-22T01:19:50.964Z,86.6
2018-11-22T01:20:50.845Z,86.9
2018-11-22T01:21:51.154Z,87
2018-11-22T01:22:51.059Z,87
2018-11-22T01:23:50.946Z,86.9
2018-11-22T01:24:50.819Z,87
2018-11-22T01:25:50.709Z,86.9
2018-11-22T01:26:50.589Z,86.6
2018-11-22T01:27:50.472Z,86.6
2018-11-22T01:28:50.385Z,86.7
2018-11-22T01:29:50.277Z,86.6
2018-11-22T01:30:50.155Z,86.5
2018-11-22T01:31:50.477Z,86.5
2018-11-22T01:32:50.386Z,86.1
2018-11-22T01:33:50.299Z,85.7
2018-11-22T01:34:50.200Z,85.9
2018-11-22T01:35:50.119Z,86.2
2018-11-22T01:36:50.007Z,86.3
2018-11-22T01:37:49.911Z,86.1
2018-11-22T01:38:49.808Z,86.2
2018-11-22T01:39:49.713Z,86.5
2018-11-22T01:40:49.623Z,86.3
2018-11-22T01:41:49.936Z,86.3
2018-11-22T01:42:49.836Z,86.1
2018-11-22T01:43:49.714Z,86.1
2018-11-22T01:44:49.608Z,86.2
2018-11-22T01:45:49.528Z,86.2
2018-11-22T01:46:49.402Z,86.1
2018-11-22T01:47:49.284Z,86.3
2018-11-22T01:48:49.169Z,86.3
2018-11-22T01:49:49.044Z,86.4
2018-11-22T01:50:48.959Z,86.4
2018-11-22T01:51:49.258Z,86.6
2018-11-22T01:52:49.149Z,86.6
2018-11-22T01:53:49.053Z,86.6
2018-11-22T01:54:48.949Z,86.5
2018-11-22T01:55:48.870Z,86.3
2018-11-22T01:56:48.751Z,86.3
2018-11-22T01:57:48.633Z,85.6
2018-11-22T01:58:48.531Z,85.4
2018-11-22T01:59:48.437Z,85.4
2018-11-22T02:00:48.342Z,85.4
2018-11-22T02:01:48.675Z,85.6
2018-11-22T02:02:48.564Z,85.6
2018-11-22T02:03:48.464Z,85.6
2018-11-22T02:04:48.347Z,85.4
2018-11-22T02:05:48.232Z,85.2
2018-11-22T02:06:48.149Z,85.3
2018-11-22T02:07:48.035Z,85.3
2018-11-22T02:08:47.925Z,85
2018-11-22T02:09:47.813Z,85.1
2018-11-22T02:10:47.685Z,85.1
2018-11-22T02:11:47.995Z,84.4
2018-11-22T02:21:45.991Z,81.1
2018-11-22T02:22:45.916Z,81.8
2018-11-22T02:23:45.837Z,82.1
2018-11-22T02:24:45.726Z,82.9
2018-11-22T02:25:45.615Z,82.1
2018-11-22T02:26:45.510Z,82.4
2018-11-22T02:27:45.389Z,82.5
2018-11-22T02:28:45.318Z,82.8
2018-11-22T02:29:45.213Z,82.7
2018-11-22T02:30:45.104Z,82.9
2018-11-22T02:31:45.419Z,82.5
2018-11-22T02:41:43.379Z,80
2018-11-22T02:42:43.265Z,80.6
2018-11-22T02:43:43.211Z,80.7
2018-11-22T02:44:43.095Z,81
2018-11-22T02:45:43.005Z,81.3
2018-11-22T02:46:42.896Z,81.5
2018-11-22T02:47:42.790Z,81.8
2018-11-22T02:48:42.684Z,81.8
2018-11-22T02:49:42.588Z,81.9
2018-11-22T02:50:42.504Z,82
2018-11-22T02:51:42.808Z,82.1
2018-11-22T02:52:42.724Z,82
2018-11-22T02:53:42.624Z,82
2018-11-22T02:54:42.518Z,82
2018-11-22T02:55:42.402Z,82
2018-11-22T02:56:42.336Z,82.6
2018-11-22T02:57:42.219Z,82.7
2018-11-22T02:58:42.125Z,82.8
2018-11-22T02:59:41.999Z,83.4
2018-11-22T03:00:41.900Z,83.4
2018-11-22T03:41:33.398Z,79.6
2018-11-22T03:42:33.287Z,80.5
2018-11-22T03:43:33.184Z,81.1
2018-11-22T03:44:33.080Z,81.5
2018-11-22T03:45:32.966Z,81.8
2018-11-22T03:46:32.868Z,81.9
2018-11-22T03:47:32.762Z,82.1
2018-11-22T03:48:32.646Z,82.1
2018-11-22T03:49:32.594Z,82.1
2018-11-22T03:50:32.506Z,82.5
2018-11-22T03:51:32.838Z,82.8
2018-11-22T03:52:32.744Z,83
2018-11-22T03:53:32.638Z,83
2018-11-22T03:54:32.525Z,83.1
2018-11-22T03:55:32.414Z,83.3
2018-11-22T03:56:32.319Z,83.6
2018-11-22T03:57:32.230Z,83.6
2018-11-22T03:58:32.120Z,83.6
2018-11-22T03:59:32.060Z,83.8
2018-11-22T04:00:31.952Z,83.7
2018-11-22T04:01:32.272Z,83.9
2018-11-22T04:02:32.200Z,83.8
2018-11-22T04:03:32.095Z,83.8
2018-11-22T04:04:31.990Z,83.6
2018-11-22T04:05:31.874Z,83.9
2018-11-22T04:06:31.776Z,84.1
2018-11-22T04:07:31.659Z,84.3
2018-11-22T04:08:31.584Z,84.5
2018-11-22T04:09:31.534Z,84.5
2018-11-22T04:10:31.436Z,84.5
2018-11-22T04:11:31.805Z,84.8
2018-11-22T04:12:31.699Z,85
2018-11-22T04:13:31.619Z,85.2
2018-11-22T04:14:31.527Z,85.3
2018-11-22T04:15:31.436Z,85
2018-11-22T04:16:31.349Z,85
2018-11-22T04:17:31.258Z,85.1
2018-11-22T04:18:31.148Z,85.2
2018-11-22T04:19:31.065Z,85
2018-11-22T04:20:30.956Z,85
2018-11-22T04:21:31.295Z,85.3
2018-11-22T04:22:31.194Z,85.3
2018-11-22T04:23:31.109Z,85.4
2018-11-22T04:24:31.011Z,85.6
2018-11-22T04:25:30.917Z,85.6
2018-11-22T04:26:30.799Z,85.8
2018-11-22T04:27:30.683Z,85.9
2018-11-22T04:28:30.608Z,86.1
2018-11-22T04:29:30.517Z,86.4
2018-11-22T04:30:30.422Z,86.2
2018-11-22T04:31:30.759Z,86.1
2018-11-22T04:32:30.659Z,86.4
2018-11-22T04:33:30.568Z,86.5
2018-11-22T04:34:30.460Z,86.1
2018-11-22T04:35:31.605Z,85.9
2018-11-22T04:36:31.498Z,86.4
2018-11-22T04:37:31.397Z,86.7
2018-11-22T04:38:31.296Z,86.9
2018-11-22T04:39:31.188Z,87.1
2018-11-22T04:40:31.084Z,87.1
2018-11-22T04:51:29.167Z,82.9
2018-11-22T04:52:29.057Z,83.2
2018-11-22T04:53:28.938Z,83.3
2018-11-22T04:54:28.833Z,83.7
2018-11-22T04:55:28.710Z,84
2018-11-22T04:56:28.639Z,84.2
2018-11-22T04:57:28.524Z,84.1
2018-11-22T04:58:28.419Z,84.2
2018-11-22T04:59:28.333Z,84.1
2018-11-22T05:00:28.232Z,84.3
2018-11-22T05:01:28.547Z,84.3
2018-11-22T05:02:28.471Z,84.6
2018-11-22T05:03:28.356Z,84.6
2018-11-22T05:04:31.381Z,84.6
2018-11-22T05:05:31.278Z,84.6
2018-11-22T05:06:31.154Z,84.7
2018-11-22T05:07:31.081Z,84.6
2018-11-22T05:08:30.982Z,84.6
2018-11-22T05:09:30.899Z,84.5
2018-11-22T05:10:30.809Z,84.7
2018-11-22T05:11:31.139Z,85
2018-11-22T05:12:31.041Z,84.8
2018-11-22T05:13:30.938Z,84.7
2018-11-22T05:14:30.821Z,84.7
2018-11-22T05:15:30.716Z,84.5
2018-11-22T05:16:30.595Z,84.7
2018-11-22T05:17:30.481Z,84.6
2018-11-22T05:18:30.399Z,84.6
2018-11-22T05:19:30.291Z,84.4
2018-11-22T05:20:30.181Z,84.4
2018-11-22T05:21:30.488Z,84.4
2018-11-22T05:22:30.387Z,84.6
2018-11-22T05:23:31.118Z,84.8
2018-11-22T05:24:31.022Z,84.9
2018-11-22T05:25:30.928Z,84.8
2018-11-22T05:26:30.815Z,84.9
2018-11-22T05:27:30.719Z,84.8
2018-11-22T05:28:30.627Z,84.6
2018-11-22T05:29:30.556Z,84.8
2018-11-22T05:30:30.457Z,85.2
2018-11-22T05:41:33.941Z,81.6
2018-11-22T05:42:33.852Z,82.2
2018-11-22T05:43:33.736Z,82.5
2018-11-22T05:44:33.629Z,82.5
2018-11-22T05:45:33.545Z,82.4
2018-11-22T05:46:33.437Z,82.7
2018-11-22T05:47:33.334Z,83.1
2018-11-22T05:48:33.211Z,83.1
2018-11-22T05:49:33.095Z,83.2
2018-11-22T05:50:32.984Z,83.2
2018-11-22T05:51:33.315Z,83.6
2018-11-22T05:52:33.220Z,83.7
2018-11-22T05:53:33.105Z,83.7
2018-11-22T05:54:33.001Z,83.9
2018-11-22T05:55:32.890Z,83.9
2018-11-22T05:56:32.787Z,84.1
2018-11-22T05:57:32.681Z,84.1
2018-11-22T05:58:32.566Z,84.1
2018-11-22T05:59:32.491Z,84.2
2018-11-22T06:00:32.389Z,84.2
2018-11-22T06:01:32.751Z,84.2
2018-11-22T06:02:32.653Z,84.3
2018-11-22T06:03:32.540Z,84.3
2018-11-22T06:04:32.440Z,84.2
2018-11-22T06:05:32.327Z,84.2
2018-11-22T06:06:32.223Z,84.1
2018-11-22T06:07:32.151Z,84.2
2018-11-22T06:08:32.055Z,84.5
2018-11-22T06:09:31.965Z,84.7
2018-11-22T06:10:31.847Z,84.7
2018-11-22T06:11:32.173Z,84.9
2018-11-22T06:12:32.081Z,85
2018-11-22T06:13:32.002Z,85.1
2018-11-22T06:14:31.897Z,85.1
2018-11-22T06:15:31.795Z,84.8
2018-11-22T06:16:31.701Z,84.9
2018-11-22T06:17:31.615Z,85.1
2018-11-22T06:18:31.563Z,85.2
2018-11-22T06:19:31.463Z,85
2018-11-22T06:20:31.359Z,84.8
2018-11-22T06:21:31.659Z,85
2018-11-22T06:22:31.551Z,85
2018-11-22T06:23:31.467Z,85.2
2018-11-22T06:24:31.355Z,85.2
2018-11-22T06:25:31.248Z,85.2
2018-11-22T06:26:31.141Z,85.4
2018-11-22T06:27:31.040Z,85.3
2018-11-22T06:28:30.951Z,85.3
2018-11-22T06:29:30.855Z,85.4
2018-11-22T06:30:30.749Z,85.7
2018-11-22T06:31:36.355Z,85.8
2018-11-22T06:32:36.243Z,86.1
2018-11-22T06:33:36.145Z,86.3
2018-11-22T06:34:36.021Z,86.6
2018-11-22T06:35:35.915Z,86.6
2018-11-22T06:36:35.810Z,86.9
2018-11-22T06:37:35.711Z,87.1
2018-11-22T06:38:35.819Z,87.4
2018-11-22T06:39:35.719Z,87.5
2018-11-22T06:40:35.627Z,87.4
2018-11-22T06:41:35.931Z,87.3
2018-11-22T06:42:35.821Z,87.6
2018-11-22T06:43:35.717Z,87.8
2018-11-22T06:44:35.631Z,87.7
2018-11-22T06:45:35.557Z,87.4
2018-11-22T06:46:35.454Z,88.2
2018-11-22T06:47:35.347Z,87.6
2018-11-22T06:48:35.237Z,87.9
2018-11-22T06:49:35.132Z,87.7
2018-11-22T06:50:35.025Z,87.6
2018-11-22T06:51:35.335Z,87.5
2018-11-22T06:52:35.229Z,87.6
2018-11-22T06:53:35.119Z,87.7
2018-11-22T06:54:35.005Z,87.7
2018-11-22T06:55:34.909Z,87.6
2018-11-22T06:56:34.789Z,87.7
2018-11-22T06:57:34.730Z,87.9
2018-11-22T06:58:34.641Z,88
2018-11-22T06:59:34.541Z,88
2018-11-22T07:00:34.427Z,88.1
2018-11-22T07:01:35.839Z,88.1
2018-11-22T07:02:35.735Z,88
2018-11-22T07:03:35.617Z,88.1
2018-11-22T07:04:35.513Z,88
2018-11-22T07:05:35.441Z,87.8
2018-11-22T07:06:35.355Z,88
2018-11-22T07:07:35.246Z,88.1
2018-11-22T07:08:35.139Z,88
2018-11-22T07:09:35.021Z,88.1
2018-11-22T07:10:34.929Z,88
2018-11-22T07:11:35.255Z,88.2
2018-11-22T07:12:35.151Z,88.2
2018-11-22T07:13:35.051Z,88.1
2018-11-22T07:14:34.939Z,88.1
2018-11-22T07:15:34.833Z,88
2018-11-22T07:16:34.761Z,88
2018-11-22T07:17:34.657Z,87.8
2018-11-22T07:18:34.559Z,87.8
2018-11-22T07:19:34.473Z,88
2018-11-22T07:20:34.423Z,88.2
2018-11-22T07:21:34.741Z,88
2018-11-22T07:22:34.655Z,88
2018-11-22T07:23:34.572Z,87.8
2018-11-22T07:24:34.475Z,87.8
2018-11-22T07:25:34.377Z,87.7
2018-11-22T07:26:34.259Z,87.6
2018-11-22T07:27:38.929Z,87.2
2018-11-22T07:28:38.821Z,86.9
2018-11-22T07:29:38.717Z,86.9
2018-11-22T07:30:43.013Z,87
2018-11-22T07:31:43.415Z,86.7
2018-11-22T07:32:43.336Z,86.8
2018-11-22T07:33:43.232Z,86.8
2018-11-22T07:34:43.142Z,86.7
2018-11-22T07:35:43.022Z,86.4
2018-11-22T07:36:42.919Z,85.8
2018-11-22T07:37:42.823Z,85.7
2018-11-22T07:38:42.731Z,85.4
2018-11-22T07:39:42.633Z,85.3
2018-11-22T07:40:42.511Z,85
2018-11-22T07:41:42.809Z,85
2018-11-22T07:42:42.692Z,84.9
2018-11-22T07:43:42.590Z,85
2018-11-22T07:44:42.469Z,84.8
2018-11-22T07:45:42.369Z,83.9
2018-11-22T07:46:42.265Z,84.2
2018-11-22T07:47:42.146Z,83.9
2018-11-22T07:48:42.077Z,83.6
2018-11-22T07:49:41.961Z,83.4
2018-11-22T07:50:41.847Z,83.2
2018-11-22T07:51:42.169Z,82.6
2018-11-22T07:52:42.091Z,82.8
2018-11-22T07:53:41.995Z,82.9
2018-11-22T07:54:41.887Z,82.9
2018-11-22T07:55:41.779Z,82.6
2018-11-22T07:56:41.690Z,82.3
2018-11-22T07:57:41.588Z,82.3
2018-11-22T07:58:41.507Z,81.9
2018-11-22T07:59:41.411Z,82.3
2018-11-22T08:00:41.299Z,82.2
2018-11-22T08:01:41.622Z,82
2018-11-22T08:02:41.506Z,81.9
2018-11-22T08:03:41.416Z,81.8
2018-11-22T08:04:41.329Z,81.9
2018-11-22T08:05:41.233Z,81.7
2018-11-22T08:06:41.133Z,81.5
2018-11-22T08:07:41.019Z,80.7
2018-11-22T08:08:40.909Z,80.8
2018-11-22T08:09:40.814Z,81.1
2018-11-22T08:10:40.693Z,81
2018-11-22T08:11:41.027Z,81.2
2018-11-22T08:12:41.466Z,81.8
2018-11-22T08:13:41.633Z,81
2018-11-22T08:14:41.547Z,80.7
2018-11-22T08:15:41.472Z,81.3
2018-11-22T08:16:41.373Z,81
2018-11-22T08:17:41.281Z,80.7
2018-11-22T08:18:41.170Z,81.2
2018-11-22T08:19:41.074Z,81
2018-11-22T08:20:40.997Z,80.9
2018-11-22T08:21:41.310Z,81.5
2018-11-22T08:22:41.194Z,82
2018-11-22T08:23:41.078Z,82.5
2018-11-22T08:24:40.982Z,82.6
2018-11-22T08:25:40.889Z,82.6
2018-11-22T08:26:40.784Z,82.5
2018-11-22T08:27:40.678Z,82.5
2018-11-22T08:28:40.568Z,82.3
2018-11-22T08:29:40.461Z,82.2
2018-11-22T08:30:40.387Z,82
2018-11-22T08:31:40.718Z,82
2018-11-22T08:32:40.617Z,81.8
2018-11-22T08:33:40.511Z,81.5
2018-11-22T08:34:40.426Z,81.5
2018-11-22T08:35:40.345Z,81.3
2018-11-22T08:36:40.260Z,81.2
2018-11-22T08:37:40.145Z,81.1
2018-11-22T08:38:40.046Z,80.7
2018-11-22T08:39:39.929Z,80.4
2018-11-22T08:40:39.833Z,80.5
2018-11-22T08:41:40.168Z,80.3
2018-11-22T08:42:40.050Z,80.5
2018-11-22T08:43:39.946Z,80.2
2018-11-22T08:44:39.840Z,80.4
2018-11-22T08:45:39.747Z,80.4
2018-11-22T08:46:39.638Z,80.1
2018-11-22T08:47:39.540Z,80.3
2018-11-22T08:48:39.436Z,80.2
2018-11-22T08:49:39.350Z,79.2
2018-11-22T08:50:39.258Z,79.3
2018-11-22T08:51:39.588Z,79
2018-11-22T08:52:39.517Z,79
2018-11-22T08:53:39.421Z,78.7
2018-11-22T08:54:39.328Z,79.7
2018-11-22T08:55:39.226Z,79.6
2018-11-22T08:56:39.124Z,79.9
2018-11-22T08:57:39.034Z,79.5
2018-11-22T08:58:38.944Z,77.8
2018-11-22T08:59:38.850Z,77.4
2018-11-22T09:00:38.764Z,77
2018-11-22T09:01:39.093Z,77.2
2018-11-22T09:02:45.925Z,76.5
2018-11-22T09:03:45.850Z,76.8
2018-11-22T09:04:45.736Z,76.5
2018-11-22T09:05:45.614Z,77.5
2018-11-22T09:06:45.497Z,77.5
2018-11-22T09:07:45.396Z,76.8
2018-11-22T09:08:45.305Z,77
2018-11-22T09:09:45.214Z,76.5
2018-11-22T09:10:45.119Z,75.7
2018-11-22T09:11:45.458Z,74.1
2018-11-22T09:21:43.367Z,72.1
2018-11-22T09:22:43.261Z,72.5
2018-11-22T09:23:43.162Z,72.6
2018-11-22T09:24:43.052Z,72.6
2018-11-22T09:25:42.960Z,72.7
2018-11-22T09:26:44.000Z,72.5
2018-11-22T09:27:43.886Z,73.4
2018-11-22T09:28:43.779Z,73.4
2018-11-22T09:29:43.672Z,72.5
2018-11-22T09:30:43.594Z,71.4
2018-11-22T09:31:43.945Z,72.1
2018-11-22T09:32:43.849Z,71.6
2018-11-22T09:34:43.610Z,71.2
2018-11-22T09:35:43.517Z,70.7
2018-11-22T09:36:43.444Z,71.8
2018-11-22T09:37:43.334Z,73.4
2018-11-22T09:38:43.248Z,73.2
2018-11-22T09:39:43.142Z,72.5
2018-11-22T09:40:43.028Z,72.5
2018-11-22T09:41:43.372Z,73.5
2018-11-22T09:42:43.280Z,73.5
2018-11-22T09:43:43.166Z,73.5
2018-11-22T09:44:43.062Z,73.6
2018-11-22T09:45:42.938Z,72.6
2018-11-22T09:46:42.840Z,74
2018-11-22T09:47:42.761Z,73.8
2018-11-22T09:48:43.119Z,73.9
2018-11-22T09:49:43.340Z,74.5
2018-11-22T09:50:43.286Z,74.3
2018-11-22T09:51:43.646Z,74.3
2018-11-22T09:52:43.532Z,74.8
2018-11-22T09:53:43.422Z,74.7
2018-11-22T09:54:43.302Z,74.6
2018-11-22T09:55:43.182Z,74.5
2018-11-22T09:56:43.054Z,74.9
2018-11-22T09:57:42.950Z,75.4
2018-11-22T09:58:42.834Z,75
2018-11-22T09:59:42.765Z,74
2018-11-22T10:00:42.655Z,74.8
2018-11-22T10:01:42.964Z,75.7
2018-11-22T10:02:42.873Z,74.8
2018-11-22T10:03:42.753Z,74.2
2018-11-22T10:04:43.001Z,73.4
2018-11-22T10:05:43.497Z,73.9
2018-11-22T10:06:43.619Z,74.2
2018-11-22T10:07:43.530Z,72.5
2018-11-22T10:08:43.891Z,73.7
2018-11-22T10:09:44.265Z,74.8
2018-11-22T10:10:44.155Z,74.7
2018-11-22T10:11:44.487Z,74.1
2018-11-22T10:12:44.465Z,73.8
2018-11-22T10:31:41.768Z,67.5
2018-11-22T10:32:41.907Z,68.3
2018-11-22T10:33:41.817Z,68.8
2018-11-22T10:34:41.707Z,67.6
2018-11-22T10:35:41.613Z,67.6
2018-11-22T10:36:41.530Z,68.7
2018-11-22T10:37:41.791Z,69.8
2018-11-22T10:38:41.875Z,70.1
2018-11-22T10:39:41.784Z,70
2018-11-22T10:40:41.857Z,69.4
2018-11-22T10:41:42.172Z,70
2018-11-22T10:42:42.589Z,69.1
2018-11-22T10:43:42.951Z,70
2018-11-22T10:44:42.833Z,70
2018-11-22T10:45:42.743Z,70
2018-11-22T10:46:42.655Z,71
2018-11-22T10:47:42.581Z,71.2
2018-11-22T10:48:42.485Z,71.4
2018-11-22T10:49:42.406Z,68.7
2018-11-22T10:50:42.293Z,70.1
2018-11-22T10:51:42.623Z,68.5
2018-11-22T10:52:42.521Z,68.2
2018-11-22T10:53:42.431Z,67.9
2018-11-22T10:54:42.321Z,68
2018-11-22T10:55:42.241Z,69.8
2018-11-22T10:56:42.139Z,68.8
2018-11-22T10:57:42.033Z,69.4
2018-11-22T10:58:41.923Z,68.2
2018-11-22T10:59:41.811Z,69.2
2018-11-22T11:00:41.730Z,67.8
2018-11-22T11:01:42.021Z,68.2
2018-11-22T11:02:41.921Z,68.7
2018-11-22T11:03:41.821Z,70
2018-11-22T11:04:44.095Z,70.1
2018-11-22T11:05:44.002Z,70.1
2018-11-22T11:06:43.895Z,70
2018-11-22T11:07:43.789Z,70.2
2018-11-22T11:08:43.685Z,69.1
2018-11-22T11:09:43.595Z,68.7
2018-11-22T11:10:43.516Z,69.6
2018-11-22T11:11:43.871Z,69.8
2018-11-22T11:12:43.762Z,69
2018-11-22T11:13:43.661Z,68.7
2018-11-22T11:14:43.539Z,69.3
2018-11-22T11:15:43.455Z,70
2018-11-22T11:16:43.355Z,68.9
2018-11-22T11:17:43.285Z,68.6
2018-11-22T11:18:43.191Z,68
2018-11-22T11:19:43.118Z,68.7
2018-11-22T11:20:43.033Z,69.4
2018-11-22T11:21:43.404Z,68.2
2018-11-22T11:31:42.813Z,65.9
2018-11-22T11:32:42.700Z,66.5
2018-11-22T11:33:42.602Z,67.1
2018-11-22T11:34:42.490Z,67
2018-11-22T11:35:42.386Z,67.8
2018-11-22T11:36:42.334Z,67.9
2018-11-22T11:37:42.232Z,67.8
2018-11-22T11:38:42.150Z,68.3
2018-11-22T11:39:42.030Z,67.8
2018-11-22T11:40:41.914Z,68.7
2018-11-22T11:41:42.269Z,68.5
2018-11-22T11:42:42.185Z,68.7
2018-11-22T11:43:42.081Z,69
2018-11-22T11:44:41.980Z,69.2
2018-11-22T11:45:41.883Z,68.6
2018-11-22T11:46:41.763Z,68.4
2018-11-22T11:47:41.652Z,68.9
2018-11-22T11:48:41.576Z,69.1
2018-11-22T11:49:41.478Z,68.9
2018-11-22T11:50:41.374Z,69.8
2018-11-22T11:51:41.682Z,70.4
2018-11-22T11:52:41.562Z,69.5
2018-11-22T11:53:42.383Z,69.1
2018-11-22T11:54:42.284Z,68.9
2018-11-22T11:55:42.180Z,69
2018-11-22T11:56:42.080Z,68.9
2018-11-22T11:57:41.976Z,69
2018-11-22T11:58:41.874Z,68.9
2018-11-22T11:59:41.780Z,68.9
2018-11-22T12:00:41.667Z,69.4
2018-11-22T12:01:41.961Z,69
2018-11-22T12:02:41.864Z,68.5
2018-11-22T12:03:41.749Z,68
2018-11-22T12:04:41.683Z,68.5
2018-11-22T12:05:41.636Z,67.7
2018-11-22T12:06:41.528Z,67.3
2018-11-22T12:07:42.514Z,68
2018-11-22T12:08:42.392Z,68.8
2018-11-22T12:09:42.318Z,69
2018-11-22T12:10:42.338Z,68.7
2018-11-22T12:11:42.773Z,67.8
2018-11-22T12:12:42.893Z,68.3
2018-11-22T12:13:42.778Z,68.4
2018-11-22T12:14:42.668Z,68.8
2018-11-22T12:15:42.566Z,68.4
2018-11-22T12:16:42.460Z,68
2018-11-22T12:17:42.361Z,68.5
2018-11-22T12:18:42.272Z,67.9
2018-11-22T12:19:42.194Z,67.8
2018-11-22T12:20:42.128Z,67.5
2018-11-22T12:21:42.462Z,66.6
2018-11-22T12:22:42.382Z,67.4
2018-11-22T12:23:42.280Z,67.1
2018-11-22T12:24:42.172Z,67.3
2018-11-22T12:25:42.093Z,67.3
2018-11-22T12:26:41.974Z,67.4
2018-11-22T12:27:41.869Z,67.9
2018-11-22T12:28:41.783Z,67.9
2018-11-22T12:29:41.693Z,67.9
2018-11-22T12:30:41.619Z,67.9
2018-11-22T12:31:41.951Z,68.3
2018-11-22T12:32:41.879Z,68.4
2018-11-22T12:33:41.797Z,69
2018-11-22T12:34:41.710Z,69.3
2018-11-22T12:35:41.643Z,69.6
2018-11-22T12:36:41.575Z,70.1
2018-11-22T12:37:44.023Z,70.2
2018-11-22T12:38:43.933Z,70.2
2018-11-22T12:39:43.824Z,70.3
2018-11-22T12:40:43.727Z,70.7
2018-11-22T12:41:44.068Z,70.9
2018-11-22T12:42:43.945Z,70.7
2018-11-22T12:43:43.854Z,70.5
2018-11-22T12:44:43.773Z,70.4
2018-11-22T12:45:43.704Z,70.7
2018-11-22T12:46:43.614Z,70.7
2018-11-22T12:47:43.509Z,70.6
2018-11-22T12:48:43.411Z,70.6
2018-11-22T12:49:43.314Z,70.6
2018-11-22T12:50:43.247Z,70.7
2018-11-22T13:01:41.439Z,65.6
2018-11-22T13:02:42.500Z,66.4
2018-11-22T13:03:42.399Z,66.6
2018-11-22T13:04:42.279Z,67
2018-11-22T13:05:42.165Z,68.1
2018-11-22T13:06:42.047Z,68.3
2018-11-22T13:07:41.965Z,68.5
2018-11-22T13:08:41.868Z,69
2018-11-22T13:09:41.769Z,69.2
2018-11-22T13:10:41.681Z,69.4
2018-11-22T13:11:48.137Z,69.5
2018-11-22T13:12:48.056Z,69.8
2018-11-22T13:13:47.965Z,69.9
2018-11-22T13:14:47.853Z,70.1
2018-11-22T13:15:47.744Z,70.9
2018-11-22T13:16:47.652Z,70.1
2018-11-22T13:17:47.544Z,70
2018-11-22T13:18:47.475Z,69.9
2018-11-22T13:19:47.372Z,70.1
2018-11-22T13:20:47.498Z,70.1
2018-11-22T13:21:47.789Z,69.8
2018-11-22T13:31:45.757Z,68
2018-11-22T13:32:45.694Z,68.8
2018-11-22T13:33:45.601Z,69.2
2018-11-22T13:34:45.516Z,69.4
2018-11-22T13:35:45.426Z,69.7
2018-11-22T13:36:45.328Z,70
2018-11-22T13:37:45.226Z,70.2
2018-11-22T13:38:45.132Z,70.6
2018-11-22T13:39:45.055Z,70.8
2018-11-22T13:40:44.960Z,71
2018-11-22T13:41:45.309Z,71.3
2018-11-22T13:42:45.210Z,71.6
2018-11-22T13:43:45.100Z,71.7
2018-11-22T13:44:45.010Z,71.8
2018-11-22T13:45:47.512Z,71.5
2018-11-22T13:46:47.462Z,71.6
2018-11-22T13:47:47.361Z,71.7
2018-11-22T13:48:47.271Z,71.9
2018-11-22T13:49:47.169Z,72.2
2018-11-22T13:50:47.082Z,72.7
2018-11-22T13:51:47.395Z,72.7
2018-11-22T13:52:47.290Z,73
2018-11-22T13:53:47.197Z,73.2
2018-11-22T13:54:47.310Z,73.3
2018-11-22T13:55:47.228Z,73.2
2018-11-22T13:56:47.126Z,73.5
2018-11-22T13:57:47.026Z,73.6
2018-11-22T13:58:46.942Z,74.1
2018-11-22T13:59:46.832Z,74.1
2018-11-22T14:00:46.783Z,74.1
2018-11-22T14:01:47.087Z,73.7
2018-11-22T14:11:45.352Z,71.5
2018-11-22T14:12:45.250Z,72.2
2018-11-22T14:13:45.152Z,72.5
2018-11-22T14:14:45.061Z,72.7
2018-11-22T14:15:44.964Z,72.9
2018-11-22T14:16:44.898Z,73
2018-11-22T14:17:44.816Z,73.4
2018-11-22T14:18:44.706Z,73.9
2018-11-22T14:19:44.600Z,74.1
2018-11-22T14:20:44.506Z,73.8
2018-11-22T14:21:44.836Z,74.1
2018-11-22T14:22:44.734Z,74.8
2018-11-22T14:23:44.850Z,74.9
2018-11-22T14:24:44.763Z,75.2
2018-11-22T14:25:49.830Z,75.2
2018-11-22T14:26:49.786Z,75.2
2018-11-22T14:27:49.692Z,75.1
2018-11-22T14:28:49.566Z,75.4
2018-11-22T14:29:49.453Z,75.6
2018-11-22T14:30:49.411Z,76.2
2018-11-22T14:31:49.793Z,75.4
2018-11-22T14:32:49.714Z,75.4
2018-11-22T14:33:49.598Z,75.6
2018-11-22T14:34:52.343Z,75.8
2018-11-22T14:35:52.247Z,75.9
2018-11-22T14:36:52.128Z,76
2018-11-22T14:37:52.031Z,75.9
2018-11-22T14:38:51.934Z,76.4
2018-11-22T14:39:51.815Z,76.4
2018-11-22T14:40:51.705Z,76.6
2018-11-22T14:41:52.044Z,76.6
2018-11-22T14:42:51.956Z,76.7
2018-11-22T14:43:51.871Z,76.9
2018-11-22T14:44:51.760Z,77
2018-11-22T14:45:51.661Z,77
2018-11-22T14:46:51.554Z,76.9
2018-11-22T14:47:51.453Z,77.2
2018-11-22T14:48:51.360Z,76.9
2018-11-22T14:49:51.256Z,77.4
2018-11-22T14:50:51.153Z,77.4
2018-11-22T14:51:51.446Z,77.6
2018-11-22T14:52:51.359Z,77.5
2018-11-22T14:53:51.274Z,77.4
2018-11-22T14:54:51.191Z,77.4
2018-11-22T14:55:51.081Z,77.9
2018-11-22T14:56:51.003Z,77.7
2018-11-22T14:57:50.906Z,78
2018-11-22T14:58:50.833Z,78
2018-11-22T14:59:50.735Z,78
2018-11-22T15:00:50.668Z,78.1
2018-11-22T15:01:51.002Z,77.4
2018-11-22T15:11:49.241Z,74.2
2018-11-22T15:12:49.138Z,75
2018-11-22T15:13:49.051Z,75.1
2018-11-22T15:14:48.954Z,75.2
2018-11-22T15:15:48.871Z,75.3
2018-11-22T15:16:48.987Z,75.4
2018-11-22T15:17:48.893Z,75.4
2018-11-22T15:18:48.785Z,75.4
2018-11-22T15:19:49.689Z,75.5
2018-11-22T15:20:49.601Z,75.6
2018-11-22T15:21:49.942Z,75.9
2018-11-22T15:22:49.838Z,75.9
2018-11-22T15:23:49.736Z,76
2018-11-22T15:24:49.659Z,76
2018-11-22T15:25:49.587Z,76.1
2018-11-22T15:26:49.496Z,76.3
2018-11-22T15:27:49.415Z,76.3
2018-11-22T15:28:49.313Z,76.4
2018-11-22T15:29:49.263Z,76.5
2018-11-22T15:30:49.168Z,76.6
2018-11-22T15:31:49.535Z,76.3
2018-11-22T15:32:49.453Z,76.7
2018-11-22T15:33:49.365Z,77
2018-11-22T15:34:49.269Z,77
2018-11-22T15:35:49.163Z,77.2
2018-11-22T15:36:49.096Z,77.2
2018-11-22T15:37:49.005Z,77.3
2018-11-22T15:38:48.902Z,77.5
2018-11-22T15:39:48.803Z,77.9
2018-11-22T15:40:48.700Z,78
2018-11-22T15:41:49.123Z,78.2
2018-11-22T15:42:49.176Z,78.2
2018-11-22T15:43:49.315Z,78.1
2018-11-22T15:44:49.264Z,78.2
2018-11-22T15:45:49.167Z,78
2018-11-22T15:46:49.068Z,78.1
2018-11-22T15:47:48.995Z,78.3
2018-11-22T15:48:48.896Z,78.6
2018-11-22T15:49:48.843Z,78.7
2018-11-22T15:50:49.639Z,78.9
2018-11-22T15:51:49.957Z,79
2018-11-22T15:52:49.879Z,78.8
2018-11-22T15:53:49.803Z,78.9
2018-11-22T15:54:49.701Z,78.9
2018-11-22T15:55:49.610Z,79
2018-11-22T15:56:49.538Z,79.2
2018-11-22T15:57:49.437Z,78.8
2018-11-22T15:58:49.556Z,79.1
2018-11-22T15:59:49.611Z,79.2
2018-11-22T16:00:49.499Z,79.4
2018-11-22T16:01:49.844Z,79.1